Station History

Weather Underground - logo

Station Historical Data
Daily Summary for Nil La, TWC- Units:  Metric    English   Both
« Previous Day
Next Day »
Daily Weekly Monthly Yearly Custom
  High: Low: Average:
Temperature: 34.6 °C 13.9 °C 21.2 °C
Dew Point: 13.6 °C 9.1 °C 10.9 °C
Humidity: 80 % 23 % 56 %
Wind Speed: 5.6 km/h 0 km/h 1.1 km/h
Wind Gust: 2.9 km/h - -
Wind:- - South
Pressure: 1014.1 hPa 1010.7 hPa -
Precipitation: 0 mm    
Historical Graphs
 
 
Tabular Data for Nil La, TWC-
Time Temperature Dew Point Pressure Wind Wind Speed Wind Gust Humidity Rainfall Rate (Hourly)
00:04 17.7 °C 11.5 °C 1012.8 hPa Calm     67 % 0 mm
00:10 18.1 °C 10.9 °C 1012.8 hPa Calm     63 % 0 mm
00:14 18.4 °C 11.3 °C 1012.8 hPa Calm     63 % 0 mm
00:20 18.4 °C 11.2 °C 1012.4 hPa Calm     63 % 0 mm
00:24 18.3 °C 11.6 °C 1012.4 hPa Calm     65 % 0 mm
00:29 18.2 °C 11.7 °C 1012.4 hPa Calm     66 % 0 mm
00:34 18.1 °C 11.6 °C 1012.4 hPa Calm     66 % 0 mm
00:39 18.1 °C 11.1 °C 1012.4 hPa Calm     64 % 0 mm
00:44 18.2 °C 11.5 °C 1012.4 hPa Calm     65 % 0 mm
00:49 18.2 °C 11.9 °C 1012.4 hPa Calm     67 % 0 mm
00:55 18.1 °C 12.1 °C 1012.4 hPa Calm     68 % 0 mm
00:59 17.9 °C 12.2 °C 1012.4 hPa Calm     69 % 0 mm
01:05 17.6 °C 12.3 °C 1012.4 hPa Calm     71 % 0 mm
01:10 17.2 °C 12.1 °C 1012.4 hPa Calm     72 % 0 mm
01:14 16.8 °C 11.9 °C 1012.4 hPa Calm     73 % 0 mm
01:20 16.6 °C 12.2 °C 1012.4 hPa Calm     75 % 0 mm
01:24 16.4 °C 12 °C 1012.4 hPa Calm     75 % 0 mm
01:29 16.4 °C 12 °C 1012.8 hPa Calm     75 % 0 mm
01:34 16.4 °C 12.2 °C 1012.4 hPa Calm     76 % 0 mm
01:39 16.3 °C 11.9 °C 1012.4 hPa Calm     75 % 0 mm
01:44 16.3 °C 11.4 °C 1012.4 hPa Calm     73 % 0 mm
01:49 16.3 °C 11.4 °C 1012.4 hPa Calm     73 % 0 mm
01:55 16.3 °C 11.4 °C 1012.4 hPa Calm     73 % 0 mm
01:59 16.2 °C 11.8 °C 1012.4 hPa Calm     75 % 0 mm
02:05 16.3 °C 11.4 °C 1012.4 hPa Calm     73 % 0 mm
02:09 16.2 °C 10.9 °C 1012.4 hPa Calm     71 % 0 mm
02:15 16.2 °C 10.7 °C 1012.4 hPa Calm     70 % 0 mm
02:20 16.3 °C 10.8 °C 1012.4 hPa Calm     70 % 0 mm
02:24 16.3 °C 11.1 °C 1012.4 hPa Calm     71 % 0 mm
02:30 16.2 °C 11.2 °C 1012.4 hPa Calm     72 % 0 mm
02:35 16.3 °C 11 °C 1012.4 hPa Calm     71 % 0 mm
02:40 16.5 °C 10.6 °C 1012.4 hPa Calm     68 % 0 mm
02:44 16.7 °C 10.1 °C 1012.4 hPa ENE 1.9 km/h   65 % 0 mm
02:49 16.7 °C 10.1 °C 1012.4 hPa Calm     65 % 0 mm
02:55 16.6 °C 9.7 °C 1012.4 hPa Calm     64 % 0 mm
02:59 16.5 °C 9.4 °C 1012.4 hPa Calm     63 % 0 mm
03:04 16.6 °C 9.2 °C 1012.4 hPa Calm     62 % 0 mm
03:09 16.6 °C 9.1 °C 1012.4 hPa Calm     61 % 0 mm
03:14 16.6 °C 9.1 °C 1012.1 hPa Calm     61 % 0 mm
03:19 16.7 °C 9.3 °C 1012.4 hPa Calm     62 % 0 mm
03:24 16.6 °C 9.1 °C 1012.1 hPa Calm     61 % 0 mm
03:29 16.5 °C 10.6 °C 1012.1 hPa Calm     68 % 0 mm
03:35 16.3 °C 9.7 °C 1012.4 hPa Calm     65 % 0 mm
03:40 16.1 °C 9.8 °C 1012.1 hPa Calm     66 % 0 mm
03:44 16 °C 10.3 °C 1012.1 hPa Calm     69 % 0 mm
03:50 16 °C 10.7 °C 1012.1 hPa Calm     71 % 0 mm
03:54 15.8 °C 9.5 °C 1012.1 hPa Calm     66 % 0 mm
03:59 15.8 °C 9.9 °C 1012.4 hPa Calm     68 % 0 mm
04:04 16 °C 9.2 °C 1012.4 hPa Calm     64 % 0 mm
04:09 16.1 °C 9.8 °C 1012.4 hPa Calm     66 % 0 mm
04:14 15.9 °C 9.6 °C 1012.4 hPa Calm     66 % 0 mm
04:20 15.8 °C 9.7 °C 1012.4 hPa Calm     67 % 0 mm
04:24 15.6 °C 9.7 °C 1012.4 hPa Calm     68 % 0 mm
04:29 15.4 °C 9.6 °C 1012.4 hPa Calm     68 % 0 mm
04:34 15.4 °C 9.5 °C 1012.4 hPa Calm     68 % 0 mm
04:39 15.5 °C 9.6 °C 1012.4 hPa Calm     68 % 0 mm
04:44 15.5 °C 10.3 °C 1012.4 hPa Calm     71 % 0 mm
04:50 15.5 °C 10.7 °C 1012.4 hPa Calm     73 % 0 mm
04:54 15.3 °C 10.3 °C 1012.4 hPa Calm     72 % 0 mm
04:59 15.2 °C 10.2 °C 1012.4 hPa Calm     72 % 0 mm
05:04 15.2 °C 10.2 °C 1012.4 hPa Calm     72 % 0 mm
05:09 15.1 °C 10.1 °C 1012.4 hPa Calm     72 % 0 mm
05:14 15 °C 10.2 °C 1012.4 hPa Calm     73 % 0 mm
05:19 14.8 °C 10.2 °C 1012.4 hPa Calm     74 % 0 mm
05:24 14.7 °C 10.6 °C 1012.4 hPa Calm     76 % 0 mm
05:29 14.6 °C 10.4 °C 1012.4 hPa Calm     76 % 0 mm
05:34 14.6 °C 10.6 °C 1012.4 hPa Calm     77 % 0 mm
05:39 14.6 °C 10.4 °C 1012.4 hPa Calm     76 % 0 mm
05:44 14.6 °C 10 °C 1012.4 hPa Calm     74 % 0 mm
05:50 14.7 °C 10.1 °C 1012.8 hPa Calm     74 % 0 mm
05:54 14.7 °C 10.5 °C 1012.8 hPa Calm     76 % 0 mm
05:59 14.4 °C 10.3 °C 1012.8 hPa Calm     76 % 0 mm
06:04 14.2 °C 10.2 °C 1012.8 hPa Calm     77 % 0 mm
06:09 13.9 °C 10.2 °C 1012.8 hPa Calm     78 % 0 mm
06:14 14 °C 10.6 °C 1012.8 hPa Calm     80 % 0 mm
06:19 14.1 °C 10.4 °C 1012.8 hPa Calm     79 % 0 mm
06:25 14 °C 10.4 °C 1012.8 hPa Calm     79 % 0 mm
06:29 13.9 °C 10 °C 1013.1 hPa Calm     77 % 0 mm
06:34 13.9 °C 10 °C 1013.1 hPa Calm     77 % 0 mm
06:39 14 °C 9.8 °C 1013.1 hPa Calm     76 % 0 mm
06:44 13.9 °C 10 °C 1013.1 hPa Calm     77 % 0 mm
06:50 13.9 °C 9.9 °C 1013.1 hPa Calm     77 % 0 mm
06:55 13.9 °C 10.3 °C 1013.1 hPa Calm     79 % 0 mm
06:59 14 °C 10.1 °C 1013.1 hPa Calm     77 % 0 mm
07:05 14.2 °C 10.2 °C 1013.1 hPa Calm     77 % 0 mm
07:10 14.2 °C 10.1 °C 1013.1 hPa Calm     76 % 0 mm
07:14 14.2 °C 10.1 °C 1013.1 hPa Calm     76 % 0 mm
07:19 14.4 °C 10.2 °C 1013.1 hPa Calm     76 % 0 mm
07:24 14.4 °C 10 °C 1013.1 hPa Calm     75 % 0 mm
07:29 14.5 °C 9.7 °C 1013.4 hPa Calm     73 % 0 mm
07:35 14.8 °C 10 °C 1013.4 hPa Calm     73 % 0 mm
07:39 15.1 °C 10.4 °C 1013.4 hPa Calm     74 % 0 mm
07:44 15.4 °C 10.6 °C 1013.4 hPa Calm     73 % 0 mm
07:49 15.7 °C 10.5 °C 1013.4 hPa Calm     71 % 0 mm
07:54 16.2 °C 10.7 °C 1013.4 hPa Calm     70 % 0 mm
07:59 16.7 °C 10.7 °C 1013.8 hPa Calm     68 % 0 mm
08:04 17.3 °C 10.2 °C 1013.8 hPa Calm     63 % 0 mm
08:09 18.2 °C 10.5 °C 1013.8 hPa Calm     61 % 0 mm
08:15 19.1 °C 11.2 °C 1013.8 hPa Calm     60 % 0 mm
08:19 20.3 °C 11.5 °C 1013.8 hPa Calm     57 % 0 mm
08:24 20.8 °C 9.7 °C 1014.1 hPa Calm     49 % 0 mm
08:29 21.3 °C 9.2 °C 1014.1 hPa Calm     46 % 0 mm
08:34 21.8 °C 9.9 °C 1014.1 hPa Calm     47 % 0 mm
08:40 22.3 °C 9.8 °C 1014.1 hPa Calm     45 % 0 mm
08:44 22.8 °C 9.6 °C 1014.1 hPa Calm     43 % 0 mm
08:49 22.8 °C 9.6 °C 1014.1 hPa South 1.9 km/h   43 % 0 mm
08:55 22.9 °C 10.1 °C 1014.1 hPa SE 3.7 km/h 0.8 km/h 44 % 0 mm
08:59 23.1 °C 10.2 °C 1013.8 hPa SE 5.6 km/h 0.5 km/h 44 % 0 mm
09:04 23.1 °C 9.5 °C 1013.8 hPa SSE 3.7 km/h 0.6 km/h 42 % 0 mm
09:09 23.4 °C 10.2 °C 1013.8 hPa East 3.7 km/h 0.5 km/h 43 % 0 mm
09:14 23.8 °C 10.1 °C 1013.8 hPa SSW 3.7 km/h   42 % 0 mm
09:20 24 °C 10.3 °C 1013.8 hPa ESE 3.7 km/h 0.3 km/h 42 % 0 mm
09:24 24 °C 9.9 °C 1014.1 hPa NE 5.6 km/h 0.8 km/h 41 % 0 mm
09:29 24.1 °C 10.7 °C 1014.1 hPa Calm   1.1 km/h 43 % 0 mm
09:34 24.3 °C 10.6 °C 1014.1 hPa ESE 1.9 km/h 1.4 km/h 42 % 0 mm
09:39 24.4 °C 11.1 °C 1014.1 hPa ENE 3.2 km/h 1.4 km/h 43 % 0 mm
09:44 24.6 °C 11.6 °C 1014.1 hPa SE 1.9 km/h 0.3 km/h 44 % 0 mm
09:50 24.8 °C 11.4 °C 1013.8 hPa NE 1.9 km/h 0.3 km/h 43 % 0 mm
09:55 24.9 °C 11.5 °C 1013.8 hPa SE 5.6 km/h 1.3 km/h 43 % 0 mm
09:59 25.3 °C 11.8 °C 1013.8 hPa South 1.9 km/h 0.5 km/h 43 % 0 mm
10:04 25.6 °C 11.7 °C 1013.8 hPa East 3.7 km/h 1.6 km/h 42 % 0 mm
10:10 25.7 °C 11.8 °C 1013.8 hPa ESE 1.9 km/h 0.3 km/h 42 % 0 mm
10:14 25.8 °C 11.5 °C 1013.8 hPa ESE 1.9 km/h   41 % 0 mm
10:19 26.1 °C 12.2 °C 1013.8 hPa East 3.7 km/h   42 % 0 mm
10:24 26.4 °C 12.8 °C 1013.8 hPa NNE 1.9 km/h   43 % 0 mm
10:29 26.8 °C 12.8 °C 1013.8 hPa ESE 5.6 km/h 0.2 km/h 42 % 0 mm
10:34 27.2 °C 12.8 °C 1013.8 hPa East 3.2 km/h 0.8 km/h 41 % 0 mm
10:40 27.4 °C 13 °C 1013.8 hPa Calm     41 % 0 mm
10:45 27.8 °C 12.6 °C 1013.8 hPa ENE 1.9 km/h 0.6 km/h 39 % 0 mm
10:50 28 °C 12.8 °C 1013.8 hPa ESE 3.7 km/h 1 km/h 39 % 0 mm
10:54 28.2 °C 13.3 °C 1013.8 hPa South 1.9 km/h 0.5 km/h 40 % 0 mm
10:59 28.2 °C 12.6 °C 1013.8 hPa ESE 1.9 km/h 1.4 km/h 38 % 0 mm
11:04 28.3 °C 12.6 °C 1013.8 hPa NW 1.9 km/h 1.3 km/h 38 % 0 mm
11:09 28.4 °C 13.6 °C 1013.4 hPa ESE 3.7 km/h 0.8 km/h 40 % 0 mm
11:15 28.7 °C 12.6 °C 1013.4 hPa WSW 5.6 km/h 1.3 km/h 37 % 0 mm
11:20 29 °C 12.8 °C 1013.4 hPa South 1.9 km/h   37 % 0 mm
11:25 29.3 °C 13.1 °C 1013.4 hPa SE 3.7 km/h 0.3 km/h 37 % 0 mm
11:29 29.5 °C 12.8 °C 1013.4 hPa SSE 1.9 km/h 0.2 km/h 36 % 0 mm
11:34 29.7 °C 12.1 °C 1013.4 hPa SW 1.9 km/h 0.3 km/h 34 % 0 mm
11:39 29.9 °C 13.2 °C 1013.1 hPa SSW 1.9 km/h   36 % 0 mm
11:45 30.3 °C 11.7 °C 1013.4 hPa NW 3.7 km/h 0.8 km/h 32 % 0 mm
11:50 30.3 °C 11.3 °C 1013.1 hPa Calm     31 % 0 mm
11:54 30.3 °C 12.3 °C 1013.1 hPa SSE 1.9 km/h 0.8 km/h 33 % 0 mm
11:59 30.4 °C 13.2 °C 1013.1 hPa NNW 1.9 km/h   35 % 0 mm
12:04 30.8 °C 11.7 °C 1013.1 hPa SSW 1.9 km/h 0.6 km/h 31 % 0 mm
12:09 31 °C 11.9 °C 1012.8 hPa SE 3.7 km/h 0.2 km/h 31 % 0 mm
12:15 31.6 °C 12.4 °C 1012.8 hPa SSE 5.6 km/h 2.3 km/h 31 % 0 mm
12:19 31.7 °C 12 °C 1012.8 hPa SSE 1.9 km/h 0.5 km/h 30 % 0 mm
12:25 31.8 °C 11 °C 1012.8 hPa SE 5.6 km/h 2.4 km/h 28 % 0 mm
12:30 31.9 °C 13.2 °C 1012.8 hPa ENE 1.9 km/h 0.2 km/h 32 % 0 mm
12:34 32.2 °C 11.9 °C 1012.8 hPa WNW 1.9 km/h 0.2 km/h 29 % 0 mm
12:39 31.9 °C 12.2 °C 1012.4 hPa NNW 1.9 km/h   30 % 0 mm
12:45 32.1 °C 12.3 °C 1012.4 hPa Calm     30 % 0 mm
12:49 32.1 °C 11.8 °C 1012.4 hPa NNW 3.2 km/h 1 km/h 29 % 0 mm
12:54 32.1 °C 11.3 °C 1012.1 hPa NW 3.7 km/h 1.1 km/h 28 % 0 mm
12:59 32.3 °C 12 °C 1012.1 hPa NW 1.6 km/h 1.4 km/h 29 % 0 mm
13:04 32.4 °C 12.1 °C 1012.1 hPa WNW 1.9 km/h 1.1 km/h 29 % 0 mm
13:09 32.3 °C 11.5 °C 1012.1 hPa NW 3.7 km/h 2.4 km/h 28 % 0 mm
13:15 32.3 °C 11.4 °C 1011.7 hPa WNW 1.9 km/h 0.5 km/h 28 % 0 mm
13:19 32.6 °C 11.7 °C 1011.7 hPa North 5.6 km/h 2.9 km/h 28 % 0 mm
13:24 32.7 °C 11.8 °C 1011.7 hPa NE 1.9 km/h 0.5 km/h 28 % 0 mm
13:29 33.1 °C 11.6 °C 1011.4 hPa East 4.8 km/h 2.6 km/h 27 % 0 mm
13:35 33.3 °C 11.7 °C 1011.4 hPa West 5.6 km/h 2.1 km/h 27 % 0 mm
13:39 33.4 °C 12.4 °C 1011.1 hPa NW 3.7 km/h 1.6 km/h 28 % 0 mm
13:44 33.5 °C 11.4 °C 1011.1 hPa WNW 5.6 km/h 0.8 km/h 26 % 0 mm
13:50 33.7 °C 10.9 °C 1011.1 hPa WNW 1.9 km/h   25 % 0 mm
13:54 33.8 °C 11.1 °C 1011.1 hPa WSW 1.9 km/h 1.4 km/h 25 % 0 mm
14:00 34.2 °C 10.1 °C 1011.1 hPa SW 1.9 km/h   23 % 0 mm
14:04 34.4 °C 10.9 °C 1011.1 hPa East 3.7 km/h 0.2 km/h 24 % 0 mm
14:10 34.4 °C 10.9 °C 1010.7 hPa Calm     24 % 0 mm
14:15 34.6 °C 11.1 °C 1010.7 hPa NW 1.9 km/h 0.3 km/h 24 % 0 mm
Park Place, Exeter, Tulare County, California, USA
Compliments of Weather Underground - 2 mb